Warning: Javascript must be enabled to use all the features on this page!


Page Loading - Please Wait...

Click to hideNews Bulletins

Peak Streamflow for the Nation

USGS 01372500 WAPPINGER CREEK NEAR WAPPINGERS FALLS NY

Dutchess County, New York
Hydrologic Unit Code 02020008
Latitude  41°39'11", Longitude  73°52'21" NAD83
Drainage area 181  square miles
Contributing drainage area 181  square miles
Gage datum 114.37 feet above NGVD29
Output formats
Table
Graph
Tab-separated file
peakfq (watstore) format
Reselect output format
Water
Year
Date Gage
Height
(feet)
Stream-
flow
(cfs)
1929 1929-03-06 7.002,3 2,630
1930 1930-03-09 3.953 1,200
1931 1931-03-29 3.993,6 1,220
1932 1932-04-01 6.72 1,960
1933 1932-11-20 8.19 3,170
1934 1934-03-05 11.202 5,950
1935 1935-02-26 6.25 1,560
1936 1936-03-12 12.13 6,880
1937 1937-01-26 6.76 1,930
1938 1938-09-22 18.02 15,900
1939 1938-12-07 7.58 2,580
1940 1940-03-31 11.99 7,090
1941 1941-02-08 6.83 1,980
1942 1942-03-22 6.20 1,530
1943 1942-12-31 7.60 2,600
1944 1944-03-25 7.04 2,080
1945 1945-03-04 7.21 2,220
1946 1945-12-08 5.94 1,230
1947 1947-03-15 8.46 3,170
1948 1948-03-18 8.79 3,540
1949 1949-01-01 12.52 7,730
1950 1950-03-09 6.23 1,530
1951 1951-03-31 7.16 2,230
1952 1952-06-02 7.68 2,670
1953 1953-01-25 10.11 5,230
1954 1953-12-15 5.66 1,170
1955 1955-08-19 19.60 18,6009
1956 1955-10-16 12.47 8,170
1957 1957-04-06 6.21 1,500
1958 1957-12-21 6.90 2,130
1959 1959-01-22 10.20 5,340
1960 1960-04-05 7.74 2,850
1961 1961-02-26 10.29 5,450
1962 1962-03-13 7.35 2,500
1963 1963-03-27 7.80 2,900
1964 1964-01-26 8.071 2,1002
1965 1965-02-09 5.28 918
1966 1966-02-14 5.94 1,370
1967 1967-06-23 7.42 2,560
1968 1968-03-18 6.30 1,800
1969 1969-03-26 7.97 3,150
1970 1970-04-03 9.60 4,680
1971 1971-08-29 7.82 3,020
1972 1972-03-03 6.46 1,930
1973 1973-06-30 14.12 10,400
1974 1973-12-22 10.59 5,810
1975 1975-07-21 10.33 5,560
1976 1976-01-28 8.38 3,530
1977 1977-03-23 8.21 3,370
1978 1978-01-26 7.59 2,820
1979 1979-01-25 8.89 4,020
1980 1980-03-22 8.51 3,650
1981 1981-05-12 6.35 1,830
1982 1982-02-04 7.632 2,850
1983 1983-04-26 7.09 2,400
1984 1984-05-30 12.18 7,830
1985 1985-09-28 5.92 1,500
1986 1986-03-15 8.00 3,150
1987 1987-04-05 10.17 5,410
1988 1988-07-24 6.05 1,610
1989 1989-05-17 9.44 4,590
1990 1989-10-21 7.38 2,610
1991 1990-10-24 6.62 2,010
1992 1991-11-23 5.80 1,400
1993 1993-03-29 7.59 2,790
1994 1994-03-24 7.08 2,370
1995 1994-12-25 5.89 1,480
1996 1996-01-20 10.33 5,600
1997 1996-10-21 6.71 2,080
1998 1998-05-11 6.74 2,100
1999 1999-09-17 6.73 2,0909
2000 2000-06-07 6.49 1,920
2001 2000-12-18 7.38 2,610
2002 2002-06-07 5.85 1,440
2003 2003-03-22 8.23 3,360
2004 2003-12-25 8.48 3,600
2005 2005-01-15 10.18 5,420
2006 2005-10-15 11.15 6,590
2007 2007-04-16 15.06 11,600
2008 2008-03-09 10.42 5,740
2009 2008-12-12 9.73 4,980
2010 2010-03-31 7.02 2,360
2011 2011-08-29 15.29 11,9009
2012 2011-12-08 7.20 2,450
2013 2013-07-02 8.76 3,890
2014 2014-03-30 7.482 2,730
2015 2015-04-04 5.53 1,300
2016 2016-02-25 8.75 3,880
2017 2017-04-01 6.09 1,640
2018 2018-09-19 6.59 1,960
2019 2018-11-03 8.01 3,170
2020 2019-12-14 6.70 2,030
?
  Peak Gage-Height Qualification Codes.
?
  Peak Streamflow Qualification Codes.